Time;durP1;ratioP1;P1;durP2;ratioP2;P2;SDS_P1;SDS_P2;PMS_P1;PMS_P2;Temp;Humidity;BMP_temperature;BMP_pressure;BME280_temperature;BME280_humidity;BME280_pressure;Samples;Min_cycle;Max_cycle;Signal;HPM_P1;HPM_P2
2022/12/26 00:02:25;;;;;;;3.92;3.25;;;6.60;91.30;;;;;;5113015;28;20296;-63
2022/12/26 00:04:54;;;;;;;5.35;3.33;;;6.50;91.00;;;;;;5113099;28;20199;-63
2022/12/26 00:07:22;;;;;;;4.25;3.13;;;6.40;91.00;;;;;;5112204;27;20219;-63
2022/12/26 00:09:51;;;;;;;6.10;3.95;;;6.30;91.00;;;;;;5113109;28;20226;-63
2022/12/26 00:12:19;;;;;;;4.93;3.60;;;6.30;91.10;;;;;;5112654;28;20265;-63
2022/12/26 00:14:47;;;;;;;6.03;4.05;;;6.20;91.00;;;;;;5131146;27;20187;-63
2022/12/26 00:17:16;;;;;;;6.47;5.13;;;6.10;91.40;;;;;;5118107;27;20196;-62
2022/12/26 00:19:45;;;;;;;6.18;3.72;;;6.00;91.70;;;;;;5133454;27;20213;-63
2022/12/26 00:22:14;;;;;;;9.02;5.45;;;6.00;92.10;;;;;;5116317;27;20682;-63
2022/12/26 00:24:43;;;;;;;6.47;4.63;;;6.00;92.40;;;;;;5112738;28;20320;-63
2022/12/26 00:27:12;;;;;;;7.18;5.05;;;6.00;92.40;;;;;;5113367;27;20267;-63
2022/12/26 00:29:40;;;;;;;7.22;5.35;;;6.10;92.50;;;;;;5126735;27;20225;-66
2022/12/26 00:32:07;;;;;;;8.65;5.35;;;6.00;92.20;;;;;;5105499;28;20210;-66
2022/12/26 00:34:35;;;;;;;12.98;4.63;;;5.90;91.80;;;;;;5111167;28;20191;-65
2022/12/26 00:37:03;;;;;;;5.15;3.70;;;5.90;92.40;;;;;;5112325;28;20180;-63
2022/12/26 00:39:31;;;;;;;11.20;4.47;;;6.00;92.50;;;;;;5112979;28;20188;-63
2022/12/26 00:42:00;;;;;;;8.63;3.90;;;6.00;93.00;;;;;;5112046;28;20527;-64
2022/12/26 00:44:30;;;;;;;4.45;3.00;;;6.00;93.20;;;;;;5112457;28;20607;-63
2022/12/26 00:46:58;;;;;;;4.20;2.80;;;6.00;93.10;;;;;;5111894;28;20188;-63
2022/12/26 00:49:26;;;;;;;5.05;2.90;;;6.00;93.20;;;;;;5112077;28;20224;-63
2022/12/26 00:51:54;;;;;;;5.20;3.20;;;6.00;93.30;;;;;;5111232;28;20200;-65
2022/12/26 00:54:23;;;;;;;6.18;3.75;;;6.00;92.80;;;;;;5112051;28;20262;-63
2022/12/26 00:56:52;;;;;;;3.38;2.50;;;6.00;92.60;;;;;;5112444;28;20241;-63
2022/12/26 00:59:21;;;;;;;3.42;2.30;;;6.00;92.90;;;;;;5112260;27;20184;-63
2022/12/26 01:01:52;;;;;;;4.47;2.53;;;6.10;93.30;;;;;;5111971;28;20187;-63
2022/12/26 01:04:22;;;;;;;4.43;2.47;;;6.10;93.30;;;;;;5111858;28;20187;-63
2022/12/26 01:06:51;;;;;;;3.05;2.17;;;6.10;93.10;;;;;;5112112;28;20735;-63
2022/12/26 01:09:20;;;;;;;3.80;2.75;;;6.10;93.00;;;;;;5111493;28;20212;-63
2022/12/26 01:11:48;;;;;;;3.85;2.78;;;6.10;92.60;;;;;;5111523;28;20203;-64
2022/12/26 01:14:16;;;;;;;3.30;2.50;;;6.10;92.50;;;;;;5111216;28;20243;-63
2022/12/26 01:16:45;;;;;;;4.28;2.47;;;6.00;92.30;;;;;;5113118;27;20189;-64
2022/12/26 01:19:17;;;;;;;4.82;2.40;;;6.00;92.70;;;;;;5111237;27;20188;-66
2022/12/26 01:21:44;;;;;;;5.18;2.40;;;6.00;93.20;;;;;;5111025;27;20177;-64
2022/12/26 01:24:13;;;;;;;5.15;3.20;;;6.00;93.30;;;;;;5111030;27;20184;-64
2022/12/26 01:26:41;;;;;;;5.65;3.13;;;6.00;93.80;;;;;;5130968;27;20188;-68
2022/12/26 01:29:10;;;;;;;4.93;2.88;;;5.90;94.30;;;;;;5114498;27;20261;-64
2022/12/26 01:31:37;;;;;;;7.00;4.35;;;5.90;94.70;;;;;;5111842;28;20226;-63
2022/12/26 01:34:05;;;;;;;5.60;3.92;;;5.70;94.90;;;;;;5120306;27;20350;-63
2022/12/26 01:36:35;;;;;;;5.38;3.60;;;5.70;95.00;;;;;;5132318;27;20227;-63
2022/12/26 01:39:03;;;;;;;6.85;3.92;;;5.70;95.30;;;;;;5111067;27;20188;-63
2022/12/26 01:41:32;;;;;;;5.78;3.80;;;5.60;96.20;;;;;;5112745;27;20197;-64
2022/12/26 01:44:01;;;;;;;3.78;2.63;;;5.60;96.40;;;;;;5114527;27;20199;-63
2022/12/26 01:46:34;;;;;;;3.38;2.00;;;5.70;96.30;;;;;;5116825;27;20188;-63
2022/12/26 01:49:08;;;;;;;3.40;2.20;;;5.80;96.20;;;;;;5109833;28;20216;-63
2022/12/26 01:51:40;;;;;;;4.82;2.55;;;5.90;96.00;;;;;;5109883;28;20184;-64
2022/12/26 01:54:11;;;;;;;3.00;2.20;;;6.00;95.60;;;;;;5110100;28;20184;-63
2022/12/26 01:56:42;;;;;;;4.10;2.70;;;6.00;95.20;;;;;;5110891;28;20254;-64
2022/12/26 01:59:15;;;;;;;7.80;4.05;;;6.00;94.80;;;;;;5111669;28;20192;-64
2022/12/26 02:01:45;;;;;;;5.60;3.17;;;6.00;94.00;;;;;;5110585;28;20181;-64
2022/12/26 02:07:15;;;;;;;5.78;2.85;;;6.00;93.40;;;;;;5089584;28;20192;-63
2022/12/26 02:09:43;;;;;;;4.90;3.03;;;6.00;92.60;;;;;;5111019;28;20216;-64
2022/12/26 02:12:19;;;;;;;3.70;2.08;;;5.90;92.40;;;;;;5111628;27;20237;-64
2022/12/26 02:14:48;;;;;;;4.97;2.80;;;5.90;93.20;;;;;;5109549;28;20188;-63
2022/12/26 02:17:15;;;;;;;5.68;2.90;;;5.80;92.80;;;;;;5110083;28;20188;-63
2022/12/26 02:19:54;;;;;;;5.40;3.13;;;5.70;92.20;;;;;;5112125;28;20227;-63
2022/12/26 02:23:16;;;;;;;5.07;3.42;;;5.70;92.30;;;;;;5115835;28;20192;-63
2022/12/26 02:26:16;;;;;;;4.70;2.58;;;5.60;92.70;;;;;;5033449;28;20207;-63
2022/12/26 02:29:10;;;;;;;2.75;2.13;;;5.60;93.60;;;;;;5043020;28;20214;-63
2022/12/26 02:31:47;;;;;;;3.05;2.00;;;5.60;94.40;;;;;;5103780;28;20196;-64
2022/12/26 02:34:19;;;;;;;3.58;1.33;;;5.60;94.50;;;;;;5116286;28;20546;-63
2022/12/26 02:37:17;;;;;;;3.15;2.05;;;5.70;94.40;;;;;;5115258;28;20250;-63
2022/12/26 02:40:02;;;;;;;6.22;2.15;;;5.70;94.50;;;;;;5115513;27;20188;-63
2022/12/26 02:42:42;;;;;;;3.15;1.73;;;5.70;94.40;;;;;;5113084;28;20638;-63
2022/12/26 02:48:13;;;;;;;4.88;2.00;;;5.70;93.50;;;;;;5116193;28;20207;-63
2022/12/26 03:13:49;;;;;;;2.55;1.45;;;5.50;95.00;;;;;;5115004;28;20195;-63
2022/12/26 03:19:06;;;;;;;4.00;1.27;;;5.50;94.90;;;;;;5114925;28;20241;-63
2022/12/26 03:21:40;;;;;;;2.10;1.15;;;5.60;94.80;;;;;;5115245;28;20238;-63
2022/12/26 03:24:11;;;;;;;3.90;1.45;;;5.60;94.60;;;;;;5114887;28;20192;-63
2022/12/26 03:26:46;;;;;;;3.45;1.25;;;5.70;94.60;;;;;;5115347;28;20188;-63
2022/12/26 03:32:02;;;;;;;2.20;1.27;;;5.70;94.10;;;;;;5113682;28;20649;-64
2022/12/26 03:34:30;;;;;;;4.78;1.55;;;5.70;94.10;;;;;;5114862;28;20229;-63
2022/12/26 03:37:23;;;;;;;19.35;10.40;;;5.80;94.00;;;;;;5114355;28;20188;-65
2022/12/26 04:19:57;;;;;;;2.55;1.95;;;5.00;95.50;;;;;;5114345;28;20207;-63
2022/12/26 04:45:00;;;;;;;3.42;1.83;;;4.90;91.30;;;;;;5113629;28;20581;-63
2022/12/26 04:47:31;;;;;;;6.43;1.80;;;4.70;91.20;;;;;;5113687;28;20646;-62
2022/12/26 04:50:14;;;;;;;2.22;1.40;;;4.50;91.50;;;;;;5111725;28;20303;-63
2022/12/26 04:53:00;;;;;;;3.92;2.47;;;4.50;92.20;;;;;;5111865;28;20256;-63
2022/12/26 04:55:29;;;;;;;8.63;1.58;;;4.50;92.60;;;;;;5113730;28;20542;-64
2022/12/26 04:57:57;;;;;;;3.83;2.42;;;4.50;93.00;;;;;;5113020;28;20227;-65
2022/12/26 05:00:28;;;;;;;4.05;2.40;;;4.40;93.00;;;;;;5113121;28;20241;-64
2022/12/26 05:11:18;;;;;;;2.72;1.50;;;4.20;95.60;;;;;;5113629;28;20560;-64
2022/12/26 05:13:46;;;;;;;3.63;1.88;;;4.30;95.70;;;;;;5113029;28;20210;-63
2022/12/26 05:30:11;;;;;;;3.60;2.65;;;4.50;97.40;;;;;;5113050;28;20219;-65
2022/12/26 05:35:24;;;;;;;3.88;1.45;;;4.50;97.40;;;;;;5113186;28;20254;-63
2022/12/26 05:37:52;;;;;;;2.40;1.35;;;4.60;97.00;;;;;;5112312;28;20180;-63
2022/12/26 05:40:20;;;;;;;3.10;1.60;;;4.60;96.90;;;;;;5112872;28;20188;-62
2022/12/26 05:42:47;;;;;;;3.10;1.60;;;4.60;96.90;;;;;;5112576;28;20207;-63
2022/12/26 05:45:14;;;;;;;2.83;1.60;;;4.60;96.90;;;;;;5112658;28;20203;-64
2022/12/26 05:47:43;;;;;;;5.70;3.90;;;4.60;96.80;;;;;;5111983;28;20568;-63
2022/12/26 05:50:11;;;;;;;7.47;4.35;;;4.70;96.50;;;;;;5112536;28;20212;-63
2022/12/26 05:52:38;;;;;;;7.13;4.03;;;4.70;96.80;;;;;;5112634;28;20264;-64
2022/12/26 05:55:07;;;;;;;8.77;4.50;;;4.70;96.80;;;;;;5112297;28;20203;-63
2022/12/26 05:57:35;;;;;;;3.17;2.40;;;4.80;96.60;;;;;;5112803;28;20589;-63
2022/12/26 06:00:02;;;;;;;3.15;1.85;;;4.80;96.40;;;;;;5112268;28;20271;-63
2022/12/26 06:02:29;;;;;;;3.90;3.60;;;4.70;95.80;;;;;;5112480;28;20240;-63
2022/12/26 06:04:58;;;;;;;4.97;4.57;;;4.70;96.00;;;;;;5112139;28;20253;-63
2022/12/26 06:07:26;;;;;;;3.83;2.38;;;4.80;96.20;;;;;;5110627;28;20208;-64
2022/12/26 06:09:53;;;;;;;3.10;2.70;;;4.90;95.90;;;;;;5109481;28;20228;-64
2022/12/26 06:12:20;;;;;;;3.65;2.95;;;5.00;95.80;;;;;;5110554;28;20206;-63
2022/12/26 06:14:47;;;;;;;2.83;1.40;;;5.00;95.70;;;;;;5110393;27;20323;-63
2022/12/26 06:17:15;;;;;;;3.75;2.25;;;5.00;95.60;;;;;;5110507;28;20279;-63
2022/12/26 06:19:42;;;;;;;2.13;1.15;;;5.00;95.60;;;;;;5105786;28;20181;-63
2022/12/26 06:22:11;;;;;;;4.63;2.00;;;5.00;95.60;;;;;;5111194;28;21272;-64
2022/12/26 06:24:39;;;;;;;2.17;1.17;;;5.20;95.60;;;;;;5110635;28;20227;-64
2022/12/26 06:27:07;;;;;;;1.92;1.13;;;5.20;95.60;;;;;;5110387;28;20199;-64
2022/12/26 06:29:34;;;;;;;4.00;2.22;;;5.20;95.30;;;;;;5110224;28;20204;-64
2022/12/26 06:32:02;;;;;;;3.10;1.70;;;5.30;94.90;;;;;;5110748;28;20196;-64
2022/12/26 06:34:30;;;;;;;4.00;1.10;;;5.40;95.00;;;;;;5110049;28;20188;-63
2022/12/26 06:36:57;;;;;;;2.28;1.30;;;5.30;94.80;;;;;;5110354;28;20196;-65
2022/12/26 06:39:26;;;;;;;3.90;2.25;;;5.30;94.90;;;;;;5110804;28;20208;-63
2022/12/26 06:41:54;;;;;;;4.75;2.17;;;5.30;95.50;;;;;;5110898;28;20241;-63
2022/12/26 06:44:21;;;;;;;2.78;1.70;;;5.40;95.20;;;;;;5110251;28;20192;-64
2022/12/26 06:46:49;;;;;;;2.33;1.50;;;5.50;95.00;;;;;;5106555;28;20275;-63
2022/12/26 06:49:17;;;;;;;4.13;1.85;;;5.60;94.70;;;;;;5110635;28;20307;-63
2022/12/26 06:51:45;;;;;;;3.90;2.20;;;5.60;94.40;;;;;;5110358;28;20184;-63
2022/12/26 06:54:13;;;;;;;2.83;1.88;;;5.60;94.20;;;;;;5110147;28;20552;-64
2022/12/26 06:56:59;;;;;;;2.80;1.77;;;5.50;94.30;;;;;;5110173;28;20257;-64
2022/12/26 06:59:26;;;;;;;2.13;1.25;;;5.40;94.80;;;;;;5110382;28;20241;-63
2022/12/26 07:01:54;;;;;;;2.30;1.20;;;5.40;95.20;;;;;;5110249;28;20275;-63
2022/12/26 07:04:22;;;;;;;3.63;2.22;;;5.40;95.30;;;;;;5110498;28;20189;-63
2022/12/26 07:06:49;;;;;;;4.15;1.27;;;5.50;94.90;;;;;;5109254;28;20208;-65
2022/12/26 07:09:22;;;;;;;3.70;3.28;;;5.50;94.90;;;;;;5108878;28;20184;-63
2022/12/26 07:11:51;;;;;;;4.18;1.90;;;5.60;94.90;;;;;;5114174;27;20244;-64
2022/12/26 07:14:19;;;;;;;3.85;2.33;;;5.70;94.90;;;;;;5113820;28;20195;-64
2022/12/26 07:16:47;;;;;;;2.20;1.45;;;5.70;95.00;;;;;;5109533;28;20283;-64
2022/12/26 07:19:15;;;;;;;3.00;1.63;;;5.90;95.10;;;;;;5113681;28;20192;-63
2022/12/26 07:21:47;;;;;;;3.85;2.40;;;5.90;95.00;;;;;;5113499;28;20190;-63
2022/12/26 07:24:16;;;;;;;7.00;2.33;;;6.10;95.00;;;;;;5109016;28;20188;-63
2022/12/26 07:26:44;;;;;;;2.75;1.65;;;6.10;94.90;;;;;;5113307;27;20192;-64
2022/12/26 07:29:14;;;;;;;2.63;1.60;;;6.20;94.40;;;;;;5113020;28;20249;-64
2022/12/26 07:31:42;;;;;;;3.55;1.77;;;6.20;94.30;;;;;;5113351;28;20188;-63
2022/12/26 07:34:10;;;;;;;2.65;2.08;;;6.40;93.60;;;;;;5113586;28;20605;-63
2022/12/26 07:36:38;;;;;;;4.82;1.33;;;6.30;93.20;;;;;;5113364;28;20224;-64
2022/12/26 07:39:06;;;;;;;2.70;1.30;;;6.40;93.40;;;;;;5113212;28;20548;-64
2022/12/26 07:44:19;;;;;;;2.47;1.40;;;7.00;92.50;;;;;;5113378;28;20188;-65
2022/12/26 07:46:47;;;;;;;3.60;1.70;;;7.50;91.40;;;;;;5109070;28;20776;-63
2022/12/26 07:49:14;;;;;;;2.55;1.50;;;7.80;90.60;;;;;;5112681;28;20678;-64
2022/12/26 07:51:42;;;;;;;2.47;1.50;;;8.00;89.90;;;;;;5112962;28;20181;-63
2022/12/26 07:54:10;;;;;;;2.42;1.30;;;8.20;90.00;;;;;;5112162;28;20187;-63
2022/12/26 07:56:38;;;;;;;2.30;1.40;;;8.30;88.10;;;;;;5112673;28;20273;-63
2022/12/26 07:59:05;;;;;;;2.65;1.35;;;8.30;87.70;;;;;;5113123;28;20198;-63
2022/12/26 08:01:35;;;;;;;2.90;1.75;;;8.40;87.40;;;;;;5112425;28;20192;-65
2022/12/26 08:04:02;;;;;;;2.88;1.50;;;8.40;87.20;;;;;;5112340;28;20275;-64
2022/12/26 08:06:30;;;;;;;3.15;1.60;;;8.50;86.90;;;;;;5110618;28;20209;-63
2022/12/26 08:08:57;;;;;;;3.85;1.80;;;8.60;86.10;;;;;;5111239;28;20206;-63
2022/12/26 08:11:31;;;;;;;3.70;1.90;;;8.80;86.20;;;;;;5107219;28;20217;-68
2022/12/26 08:13:58;;;;;;;3.15;1.42;;;8.80;85.60;;;;;;5077740;28;21711;-68
2022/12/26 08:16:26;;;;;;;2.15;1.35;;;8.90;84.50;;;;;;5082493;28;20224;-64
2022/12/26 08:18:55;;;;;;;2.60;1.45;;;8.80;82.40;;;;;;5111314;28;20190;-64
2022/12/26 08:21:22;;;;;;;2.55;1.17;;;8.70;82.70;;;;;;5106919;28;20206;-63
2022/12/26 08:23:50;;;;;;;2.38;1.40;;;8.70;83.60;;;;;;5109505;28;20889;-63
2022/12/26 08:26:22;;;;;;;1.83;0.95;;;8.90;82.80;;;;;;5110183;28;20235;-63
2022/12/26 08:28:50;;;;;;;2.83;1.73;;;9.00;82.20;;;;;;5111679;28;20188;-63
2022/12/26 08:31:19;;;;;;;2.65;1.67;;;9.10;82.00;;;;;;5110455;28;20229;-63
2022/12/26 08:33:46;;;;;;;3.63;1.80;;;9.20;82.20;;;;;;5111294;28;20187;-65
2022/12/26 08:36:17;;;;;;;4.40;2.85;;;9.30;82.00;;;;;;5111508;28;20251;-65
2022/12/26 08:38:44;;;;;;;3.58;2.60;;;9.30;80.80;;;;;;5112184;28;20188;-64
2022/12/26 08:41:11;;;;;;;2.95;1.90;;;9.20;81.00;;;;;;5111969;28;20546;-64
2022/12/26 08:43:38;;;;;;;3.40;2.28;;;9.20;81.10;;;;;;5112096;28;20190;-65
2022/12/26 08:46:07;;;;;;;3.83;3.13;;;9.30;81.70;;;;;;5107745;28;20191;-69
2022/12/26 08:48:35;;;;;;;3.20;1.90;;;9.60;82.80;;;;;;5110695;28;20240;-64
2022/12/26 08:51:06;;;;;;;3.85;2.05;;;9.90;82.20;;;;;;5112896;28;20682;-63
2022/12/26 08:53:37;;;;;;;2.90;1.80;;;10.40;80.80;;;;;;5113598;28;20195;-63
2022/12/26 08:56:07;;;;;;;3.28;2.10;;;10.80;80.40;;;;;;5112153;28;21037;-63
2022/12/26 08:58:35;;;;;;;4.05;2.67;;;11.30;79.30;;;;;;5113562;28;20682;-63
2022/12/26 09:01:12;;;;;;;4.55;2.83;;;11.50;75.00;;;;;;5112623;28;20189;-64
2022/12/26 09:03:39;;;;;;;14.00;10.47;;;11.60;75.60;;;;;;5113777;28;20274;-63
2022/12/26 09:06:08;;;;;;;11.57;9.83;;;11.80;75.90;;;;;;5112911;28;20469;-64
2022/12/26 09:08:37;;;;;;;9.47;7.47;;;11.90;73.80;;;;;;5113452;28;20796;-64
2022/12/26 09:11:06;;;;;;;8.00;4.90;;;12.00;70.90;;;;;;5113809;28;20514;-65
2022/12/26 09:13:33;;;;;;;4.57;3.40;;;12.10;72.90;;;;;;5114028;28;20694;-63
2022/12/26 09:16:09;;;;;;;4.07;2.90;;;12.30;69.80;;;;;;5113892;28;20912;-64
2022/12/26 09:18:36;;;;;;;3.23;2.00;;;12.60;70.20;;;;;;5114006;28;20430;-64
2022/12/26 09:21:05;;;;;;;2.93;1.80;;;13.00;69.20;;;;;;5113810;28;20438;-63
2022/12/26 09:23:33;;;;;;;3.03;1.53;;;13.40;66.60;;;;;;5113949;28;20532;-64
2022/12/26 09:26:06;;;;;;;5.13;1.53;;;13.70;66.60;;;;;;5113934;28;20797;-64
2022/12/26 09:28:33;;;;;;;2.87;1.60;;;14.20;61.40;;;;;;5113770;28;20914;-64
2022/12/26 09:31:00;;;;;;;2.57;1.33;;;14.40;59.60;;;;;;5112759;28;20884;-63
2022/12/26 09:33:28;;;;;;;2.60;1.33;;;14.70;60.40;;;;;;5113473;28;20448;-64
2022/12/26 09:35:55;;;;;;;4.20;1.37;;;14.90;60.00;;;;;;5113470;28;20466;-63
2022/12/26 09:38:22;;;;;;;4.03;2.40;;;15.20;59.40;;;;;;5113673;28;20446;-63
2022/12/26 09:41:05;;;;;;;3.53;2.50;;;15.60;57.40;;;;;;5113542;28;20476;-65
2022/12/26 09:43:48;;;;;;;4.00;1.90;;;15.90;55.20;;;;;;5113649;28;20441;-64
2022/12/26 09:46:21;;;;;;;3.80;1.50;;;16.20;55.50;;;;;;5113510;28;20466;-64
2022/12/26 09:48:54;;;;;;;2.20;1.20;;;16.30;54.00;;;;;;5113242;28;20438;-64
2022/12/26 09:51:21;;;;;;;2.00;0.97;;;16.10;53.30;;;;;;5113041;28;20561;-64
2022/12/26 09:53:48;;;;;;;2.40;1.37;;;15.90;53.40;;;;;;5113324;28;20430;-64
2022/12/26 09:56:18;;;;;;;3.80;2.23;;;15.80;53.80;;;;;;5113010;28;20542;-64
2022/12/26 09:58:51;;;;;;;6.00;1.20;;;15.80;54.00;;;;;;5113155;28;20431;-64
2022/12/26 10:01:20;;;;;;;2.63;1.33;;;16.00;54.80;;;;;;5113319;28;20473;-64
2022/12/26 10:03:51;;;;;;;2.40;1.30;;;16.30;55.40;;;;;;5112930;28;20470;-64
2022/12/26 10:06:19;;;;;;;3.37;1.50;;;16.60;53.90;;;;;;5112984;28;20441;-64
2022/12/26 10:09:15;;;;;;;2.43;1.50;;;16.80;53.40;;;;;;5113259;28;20482;-64
2022/12/26 10:11:53;;;;;;;2.87;1.60;;;17.00;53.10;;;;;;5105461;28;20477;-65
2022/12/26 10:14:35;;;;;;;4.20;1.63;;;17.20;52.70;;;;;;5113036;28;20586;-64
2022/12/26 10:17:18;;;;;;;2.83;1.73;;;17.30;52.70;;;;;;5113168;28;20473;-64
2022/12/26 10:19:57;;;;;;;2.73;1.30;;;17.40;52.60;;;;;;5113132;28;20433;-64
2022/12/26 10:22:51;;;;;;;2.23;1.40;;;17.60;50.80;;;;;;5112835;28;20474;-63
2022/12/26 10:25:22;;;;;;;3.37;1.73;;;17.50;50.40;;;;;;5113020;28;20442;-64
2022/12/26 10:27:50;;;;;;;3.57;1.80;;;17.40;50.00;;;;;;5113173;28;20528;-62
2022/12/26 10:30:24;;;;;;;3.43;1.80;;;17.60;50.90;;;;;;5112796;28;20490;-62
2022/12/26 10:32:57;;;;;;;3.20;1.47;;;17.90;49.80;;;;;;5112954;28;20438;-62
2022/12/26 10:35:29;;;;;;;4.10;1.50;;;18.10;48.70;;;;;;5112525;28;20478;-62
2022/12/26 10:38:02;;;;;;;4.53;1.30;;;18.30;48.50;;;;;;5112773;28;20997;-63
2022/12/26 10:40:35;;;;;;;2.40;1.10;;;18.50;48.20;;;;;;5113074;28;20445;-63
2022/12/26 10:43:14;;;;;;;2.20;1.10;;;18.10;47.20;;;;;;5116502;28;20848;-63
2022/12/26 10:45:49;;;;;;;2.43;1.20;;;18.20;48.20;;;;;;5116619;28;20441;-65
2022/12/26 10:48:17;;;;;;;3.20;1.17;;;18.30;47.40;;;;;;5116677;28;20848;-64
2022/12/26 10:50:47;;;;;;;2.63;1.33;;;18.50;47.70;;;;;;5116599;28;20483;-63
2022/12/26 10:53:16;;;;;;;2.73;1.23;;;18.90;46.80;;;;;;5116643;28;20442;-63
2022/12/26 10:55:44;;;;;;;2.97;1.93;;;19.10;46.00;;;;;;5116452;28;20470;-63
2022/12/26 10:58:16;;;;;;;3.93;2.70;;;19.50;45.50;;;;;;5116471;28;20474;-64
2022/12/26 11:00:45;;;;;;;2.77;1.43;;;20.00;43.60;;;;;;5116484;28;20473;-64
2022/12/26 11:03:14;;;;;;;3.47;1.53;;;20.20;43.30;;;;;;5116393;28;20473;-63
2022/12/26 11:05:43;;;;;;;2.63;1.47;;;20.50;44.50;;;;;;5116233;28;20438;-63
2022/12/26 11:08:25;;;;;;;3.40;1.93;;;21.30;44.10;;;;;;5116388;28;20961;-64
2022/12/26 11:11:02;;;;;;;2.93;1.40;;;22.00;40.70;;;;;;5116127;28;20543;-64
2022/12/26 11:13:32;;;;;;;3.00;1.73;;;22.30;40.30;;;;;;5116495;28;20896;-63
2022/12/26 11:16:01;;;;;;;2.70;1.60;;;22.20;39.60;;;;;;5115915;28;20854;-64
2022/12/26 11:18:33;;;;;;;3.03;1.50;;;21.80;40.20;;;;;;5116145;28;20859;-63
2022/12/26 11:21:19;;;;;;;2.70;1.30;;;22.00;41.30;;;;;;5116236;28;20488;-64
2022/12/26 11:23:48;;;;;;;3.20;1.80;;;22.10;40.10;;;;;;5116044;28;20525;-63
2022/12/26 11:26:22;;;;;;;2.60;1.57;;;21.90;40.00;;;;;;5116121;28;20521;-64
2022/12/26 11:29:05;;;;;;;2.70;1.40;;;22.00;40.10;;;;;;5116236;28;20748;-63
2022/12/26 11:31:34;;;;;;;3.30;1.73;;;21.80;39.80;;;;;;5115842;28;20851;-65
2022/12/26 11:34:02;;;;;;;3.73;1.40;;;21.50;39.80;;;;;;5115997;28;20478;-64
2022/12/26 11:36:31;;;;;;;4.50;2.30;;;21.00;39.80;;;;;;5115618;28;20470;-64
2022/12/26 11:39:01;;;;;;;4.10;2.00;;;20.80;40.70;;;;;;5115650;28;21008;-64
2022/12/26 11:41:40;;;;;;;4.73;2.67;;;21.30;41.00;;;;;;5115653;27;20438;-64
2022/12/26 11:44:22;;;;;;;4.40;1.73;;;21.70;40.40;;;;;;5115703;28;20468;-64
2022/12/26 11:46:54;;;;;;;4.50;2.00;;;22.00;41.10;;;;;;5115602;28;20434;-64
2022/12/26 11:49:28;;;;;;;6.43;1.80;;;22.30;40.80;;;;;;5115627;28;20788;-64
2022/12/26 11:51:55;;;;;;;3.30;1.43;;;22.40;41.00;;;;;;5115406;28;20488;-64
2022/12/26 11:54:26;;;;;;;3.70;1.50;;;22.30;40.00;;;;;;5114903;28;20478;-63
2022/12/26 11:57:19;;;;;;;2.77;1.00;;;22.10;39.30;;;;;;5115335;28;20765;-66
2022/12/26 11:59:46;;;;;;;2.43;1.17;;;21.70;38.30;;;;;;5095937;27;20960;-64
2022/12/26 12:02:25;;;;;;;3.13;1.53;;;21.40;38.80;;;;;;5115073;28;20499;-64
2022/12/26 12:04:56;;;;;;;3.63;1.43;;;21.20;40.10;;;;;;5115298;28;20433;-63
2022/12/26 12:07:47;;;;;;;3.13;1.00;;;21.10;40.40;;;;;;5115117;28;21312;-64
2022/12/26 12:10:46;;;;;;;1.90;0.80;;;20.60;40.00;;;;;;5115102;28;20451;-65
2022/12/26 12:13:25;;;;;;;2.43;1.10;;;20.50;40.90;;;;;;5115159;28;20449;-64
2022/12/26 12:15:57;;;;;;;2.07;0.83;;;20.50;41.50;;;;;;5115089;28;20978;-64
2022/12/26 12:18:40;;;;;;;2.87;1.07;;;20.50;40.50;;;;;;5114927;28;20453;-64
2022/12/26 12:21:19;;;;;;;2.87;1.37;;;20.10;40.10;;;;;;5115222;28;20826;-65
2022/12/26 12:24:10;;;;;;;3.20;1.47;;;19.60;41.10;;;;;;5115082;28;20822;-64
2022/12/26 12:26:42;;;;;;;4.77;1.20;;;19.30;42.20;;;;;;5114813;28;20430;-64
2022/12/26 12:29:51;;;;;;;3.43;1.50;;;19.10;43.00;;;;;;5114711;28;20529;-64
2022/12/26 12:32:26;;;;;;;1.93;1.13;;;18.80;43.80;;;;;;5114478;28;20529;-64
2022/12/26 12:35:12;;;;;;;4.93;1.90;;;18.80;45.50;;;;;;5114331;28;20544;-64
2022/12/26 12:37:50;;;;;;;3.83;1.80;;;19.00;46.10;;;;;;5114542;28;20554;-64
2022/12/26 12:40:29;;;;;;;4.00;1.83;;;18.90;46.00;;;;;;5114702;28;20438;-64
2022/12/26 12:43:07;;;;;;;4.77;1.70;;;18.50;46.40;;;;;;5114442;28;20940;-65
2022/12/26 12:45:37;;;;;;;3.47;1.87;;;18.20;47.60;;;;;;5114296;28;20530;-65
2022/12/26 12:48:27;;;;;;;3.60;1.77;;;17.70;49.00;;;;;;5114513;28;20497;-64
2022/12/26 12:51:03;;;;;;;5.43;1.60;;;17.30;50.80;;;;;;5110794;28;20456;-63
2022/12/26 12:53:45;;;;;;;4.30;1.90;;;16.90;52.00;;;;;;5114532;28;20982;-63
2022/12/26 12:56:24;;;;;;;2.70;1.37;;;16.70;53.60;;;;;;5114447;28;20434;-64
2022/12/26 12:59:07;;;;;;;2.83;1.40;;;16.50;54.90;;;;;;5114319;28;20430;-64
2022/12/26 13:01:39;;;;;;;3.50;1.53;;;16.20;56.00;;;;;;5114146;28;20762;-64
2022/12/26 13:04:11;;;;;;;4.23;1.80;;;16.00;57.40;;;;;;5113893;28;20434;-65
2022/12/26 13:06:43;;;;;;;4.10;1.97;;;15.70;59.00;;;;;;5113514;28;20487;-63
2022/12/26 13:09:17;;;;;;;7.90;1.77;;;15.50;60.60;;;;;;5113912;28;20476;-64
2022/12/26 13:11:47;;;;;;;3.60;1.70;;;15.40;62.60;;;;;;5113807;28;20478;-64
2022/12/26 13:14:19;;;;;;;3.03;1.47;;;15.30;63.80;;;;;;5113905;28;20435;-63
2022/12/26 13:16:50;;;;;;;4.63;1.50;;;15.20;65.30;;;;;;5113857;28;20442;-63
2022/12/26 13:19:20;;;;;;;3.23;1.50;;;15.30;66.50;;;;;;5113836;28;20434;-63
2022/12/26 13:21:51;;;;;;;3.10;1.47;;;15.30;67.30;;;;;;5113569;28;20450;-63
2022/12/26 13:24:24;;;;;;;2.47;1.40;;;15.30;67.10;;;;;;5113787;28;20443;-63
2022/12/26 13:26:58;;;;;;;2.80;1.53;;;15.30;67.70;;;;;;5113443;28;20483;-63
2022/12/26 13:29:38;;;;;;;2.30;1.23;;;15.30;67.50;;;;;;5113855;28;20430;-63
2022/12/26 13:32:20;;;;;;;3.40;2.10;;;15.20;68.10;;;;;;5113330;28;20980;-64
2022/12/26 13:34:48;;;;;;;3.33;1.60;;;15.10;69.40;;;;;;5113391;28;20469;-64
2022/12/26 13:37:58;;;;;;;2.57;1.63;;;15.00;70.40;;;;;;5113711;28;20841;-63
2022/12/26 13:40:29;;;;;;;5.67;1.73;;;14.80;71.20;;;;;;5074318;28;20970;-63
2022/12/26 13:45:50;;;;;;;3.53;2.30;;;14.50;74.10;;;;;;5113415;28;20436;-63
2022/12/26 13:49:08;;;;;;;4.67;1.80;;;14.30;73.90;;;;;;5112873;28;20480;-63
2022/12/26 13:51:53;;;;;;;2.90;1.40;;;14.10;75.80;;;;;;5113380;28;20507;-64
2022/12/26 13:54:23;;;;;;;2.90;1.60;;;14.00;76.90;;;;;;5112795;28;20938;-64
2022/12/26 13:57:29;;;;;;;3.33;1.70;;;13.90;78.00;;;;;;5113323;28;20442;-63
2022/12/26 14:00:08;;;;;;;3.13;1.40;;;13.70;78.90;;;;;;5113231;28;20441;-64
2022/12/26 14:03:10;;;;;;;4.93;1.70;;;13.60;79.00;;;;;;5113396;28;20830;-64
2022/12/26 14:05:45;;;;;;;2.57;1.60;;;13.60;79.80;;;;;;5113034;28;20430;-64
2022/12/26 14:08:28;;;;;;;2.53;1.60;;;13.50;80.50;;;;;;5113217;28;20477;-64
2022/12/26 14:11:11;;;;;;;3.67;1.63;;;13.50;81.50;;;;;;5113357;28;20438;-63
2022/12/26 14:14:00;;;;;;;5.37;2.47;;;13.50;81.50;;;;;;5113068;28;20779;-64
2022/12/26 14:16:38;;;;;;;6.03;1.73;;;13.40;81.90;;;;;;5114156;28;20804;-63
2022/12/26 14:19:15;;;;;;;3.27;1.43;;;13.30;82.60;;;;;;5117223;28;20430;-64
2022/12/26 14:21:51;;;;;;;2.57;1.20;;;13.30;82.20;;;;;;5117249;28;20954;-64
2022/12/26 14:24:37;;;;;;;4.03;1.93;;;13.20;83.10;;;;;;5116943;28;20473;-64
2022/12/26 14:27:26;;;;;;;2.73;1.10;;;13.10;83.80;;;;;;5117189;28;20984;-64
2022/12/26 14:30:05;;;;;;;4.57;1.37;;;13.00;83.60;;;;;;5117019;28;20546;-63
2022/12/26 14:32:40;;;;;;;2.57;0.97;;;12.80;83.70;;;;;;5117186;28;20904;-63
2022/12/26 14:35:18;;;;;;;1.90;1.00;;;12.80;84.40;;;;;;5116531;28;20904;-64
2022/12/26 14:37:51;;;;;;;2.20;1.23;;;12.70;84.90;;;;;;5116935;28;20459;-64
2022/12/26 14:40:28;;;;;;;2.53;1.50;;;12.70;84.40;;;;;;5117004;28;20438;-64
2022/12/26 14:43:26;;;;;;;2.40;1.00;;;12.60;84.50;;;;;;5116680;28;20951;-63
2022/12/26 14:45:54;;;;;;;2.00;0.73;;;12.50;83.40;;;;;;5109799;28;20483;-63
2022/12/26 14:49:04;;;;;;;2.10;0.60;;;12.30;83.40;;;;;;5116404;28;20521;-63
2022/12/26 14:51:40;;;;;;;2.40;0.87;;;12.20;82.70;;;;;;5116407;28;20434;-63
2022/12/26 14:54:37;;;;;;;2.10;1.10;;;12.10;82.30;;;;;;5116506;28;20449;-64
2022/12/26 14:57:37;;;;;;;4.20;1.57;;;12.00;82.20;;;;;;5116621;28;20434;-63
2022/12/26 15:00:30;;;;;;;3.63;1.27;;;12.00;82.70;;;;;;5110073;28;20525;-63
2022/12/26 15:03:33;;;;;;;2.70;1.00;;;11.90;83.30;;;;;;5116262;28;20434;-64
2022/12/26 15:06:46;;;;;;;1.83;1.00;;;11.90;83.70;;;;;;5073668;28;20940;-63
2022/12/26 15:09:48;;;;;;;2.70;0.90;;;11.80;84.00;;;;;;5033128;28;20434;-64
2022/12/26 15:13:03;;;;;;;2.90;1.20;;;11.80;84.30;;;;;;5116213;28;20565;-64
2022/12/26 15:15:44;;;;;;;2.53;1.20;;;11.70;84.90;;;;;;5116237;28;20845;-63
2022/12/26 15:18:59;;;;;;;2.30;1.10;;;11.70;85.30;;;;;;5116065;28;20533;-64
2022/12/26 15:22:03;;;;;;;1.80;0.83;;;11.70;85.70;;;;;;5080224;27;20496;-63
2022/12/26 15:28:39;;;;;;;4.57;1.67;;;11.60;87.00;;;;;;5115174;28;20430;-64
2022/12/26 15:31:29;;;;;;;3.50;1.87;;;11.60;88.20;;;;;;5116071;28;20469;-64
2022/12/26 15:34:00;;;;;;;6.60;4.60;;;11.50;88.70;;;;;;5115420;28;20565;-64
2022/12/26 15:36:36;;;;;;;8.20;4.57;;;11.40;89.40;;;;;;5115596;28;20543;-63
2022/12/26 15:39:12;;;;;;;7.67;3.90;;;11.30;90.10;;;;;;5115978;28;20438;-63
2022/12/26 15:41:45;;;;;;;6.10;3.80;;;11.30;90.10;;;;;;5115690;28;20769;-64